Time;durP1;ratioP1;P1;durP2;ratioP2;P2;SDS_P1;SDS_P2;PMS_P1;PMS_P2;Temp;Humidity;BMP_temperature;BMP_pressure;BME280_temperature;BME280_humidity;BME280_pressure;Samples;Min_cycle;Max_cycle;Signal;HPM_P1;HPM_P2
2022/06/07 00:01:31;;;;;;;12.60;6.10;;;17.30;99.90;;;;;;5072243;28;20291;-69
2022/06/07 00:03:58;;;;;;;7.90;5.30;;;17.30;99.90;;;;;;5071309;28;20291;-70
2022/06/07 00:06:25;;;;;;;8.13;5.87;;;17.20;99.90;;;;;;5071541;28;20208;-71
2022/06/07 00:08:52;;;;;;;9.23;5.87;;;17.20;99.90;;;;;;5071264;28;20622;-69
2022/06/07 00:11:19;;;;;;;8.87;5.40;;;17.20;99.90;;;;;;5071617;28;20209;-70
2022/06/07 00:13:46;;;;;;;8.83;5.27;;;17.20;99.90;;;;;;5071230;28;20219;-69
2022/06/07 00:16:13;;;;;;;7.63;5.10;;;17.20;99.90;;;;;;5071339;28;20228;-69
2022/06/07 00:18:41;;;;;;;9.00;5.10;;;17.10;99.90;;;;;;5071435;28;20321;-69
2022/06/07 00:21:08;;;;;;;7.80;5.50;;;17.10;99.90;;;;;;5071819;28;20292;-68
2022/06/07 00:23:36;;;;;;;11.27;6.03;;;17.10;99.90;;;;;;5071885;28;20201;-69
2022/06/07 00:26:04;;;;;;;8.13;5.70;;;17.10;99.90;;;;;;5072280;28;20591;-70
2022/06/07 00:28:31;;;;;;;10.43;5.33;;;17.10;99.90;;;;;;5071972;28;20205;-70
2022/06/07 00:30:59;;;;;;;7.37;5.10;;;17.00;99.90;;;;;;5070858;28;20230;-69
2022/06/07 00:33:26;;;;;;;8.00;4.97;;;17.00;99.90;;;;;;5071816;28;20231;-69
2022/06/07 00:35:55;;;;;;;9.40;5.83;;;17.00;99.90;;;;;;5071166;28;20208;-69
2022/06/07 00:38:22;;;;;;;7.87;5.33;;;17.00;99.90;;;;;;5071595;28;20204;-68
2022/06/07 00:40:49;;;;;;;10.23;5.77;;;17.00;99.90;;;;;;5071266;28;20592;-69
2022/06/07 00:43:16;;;;;;;9.57;5.90;;;17.00;99.90;;;;;;5074114;28;20285;-69
2022/06/07 00:45:43;;;;;;;12.87;6.07;;;17.00;99.90;;;;;;5075311;28;20570;-68
2022/06/07 00:48:10;;;;;;;10.67;6.03;;;16.90;99.90;;;;;;5075031;28;20295;-69
2022/06/07 00:50:45;;;;;;;10.57;5.93;;;16.90;99.90;;;;;;5074758;28;20232;-68
2022/06/07 00:53:24;;;;;;;10.03;6.33;;;16.90;99.90;;;;;;5074928;28;20604;-69
2022/06/07 00:55:51;;;;;;;9.40;6.37;;;16.90;99.90;;;;;;5075068;28;20189;-69
2022/06/07 00:58:18;;;;;;;13.77;6.27;;;16.80;99.90;;;;;;5074987;28;20307;-68
2022/06/07 01:00:46;;;;;;;11.63;6.40;;;16.70;99.90;;;;;;5074941;28;20205;-67
2022/06/07 01:03:13;;;;;;;9.20;6.33;;;16.70;99.90;;;;;;5074811;28;20796;-68
2022/06/07 01:05:40;;;;;;;11.83;5.77;;;16.70;99.90;;;;;;5074519;28;20205;-67
2022/06/07 01:10:55;;;;;;;8.80;5.50;;;16.60;99.90;;;;;;5083984;28;20223;-69
2022/06/07 01:13:25;;;;;;;9.77;6.03;;;16.60;99.90;;;;;;5094965;28;20207;-69
2022/06/07 01:15:57;;;;;;;9.67;6.10;;;16.60;99.90;;;;;;5094877;28;20227;-68
2022/06/07 01:18:25;;;;;;;8.47;5.97;;;16.60;99.90;;;;;;5095608;28;20191;-70
2022/06/07 01:21:14;;;;;;;11.60;6.47;;;16.60;99.90;;;;;;5094544;28;20202;-68
2022/06/07 01:23:42;;;;;;;10.27;6.00;;;16.50;99.90;;;;;;5094477;28;20188;-70
2022/06/07 01:26:09;;;;;;;10.03;6.10;;;16.50;99.90;;;;;;5095049;28;20262;-71
2022/06/07 01:28:36;;;;;;;9.77;5.90;;;16.50;99.90;;;;;;5094862;28;20575;-68
2022/06/07 01:31:03;;;;;;;9.93;6.17;;;16.40;99.90;;;;;;5087237;28;20231;-68
2022/06/07 01:33:30;;;;;;;13.93;6.50;;;16.30;99.90;;;;;;5074050;28;20290;-69
2022/06/07 01:36:01;;;;;;;10.27;6.23;;;16.30;99.90;;;;;;5074257;28;20205;-69
2022/06/07 01:38:31;;;;;;;9.87;6.37;;;16.20;99.90;;;;;;5073988;28;20279;-69
2022/06/07 01:43:43;;;;;;;9.17;6.50;;;16.10;99.90;;;;;;5054088;28;20280;-70
2022/06/07 01:46:10;;;;;;;10.67;6.40;;;16.10;99.90;;;;;;5054389;28;20283;-67
2022/06/07 01:48:37;;;;;;;12.33;7.00;;;16.10;99.90;;;;;;5053993;28;20651;-68
2022/06/07 01:51:05;;;;;;;10.07;6.47;;;16.00;99.90;;;;;;5057384;28;20303;-69
2022/06/07 01:53:33;;;;;;;11.50;6.47;;;16.00;99.90;;;;;;5072815;28;20209;-69
2022/06/07 01:56:04;;;;;;;9.17;6.37;;;16.00;99.90;;;;;;5073954;28;20406;-69
2022/06/07 01:58:31;;;;;;;11.70;6.77;;;15.90;99.90;;;;;;5073451;28;20317;-69
2022/06/07 02:00:58;;;;;;;12.77;7.13;;;15.90;99.90;;;;;;5056826;28;20625;-68
2022/06/07 02:03:25;;;;;;;9.37;6.53;;;15.90;99.90;;;;;;5053402;28;20402;-69
2022/06/07 02:05:56;;;;;;;16.07;7.20;;;15.80;99.90;;;;;;5053527;28;20263;-70
2022/06/07 02:08:23;;;;;;;9.90;7.07;;;15.80;99.90;;;;;;5053213;28;20245;-68
2022/06/07 02:10:51;;;;;;;11.23;6.73;;;15.80;99.90;;;;;;5068709;28;20725;-69
2022/06/07 02:13:19;;;;;;;9.53;6.80;;;15.80;99.90;;;;;;5073575;28;20303;-68
2022/06/07 02:15:46;;;;;;;12.10;6.63;;;15.90;99.90;;;;;;5073563;28;20209;-69
2022/06/07 02:18:14;;;;;;;9.13;6.30;;;15.90;99.90;;;;;;5073420;28;20277;-68
2022/06/07 02:20:41;;;;;;;9.67;6.77;;;16.00;99.90;;;;;;5060486;28;20193;-69
2022/06/07 02:23:09;;;;;;;10.50;7.13;;;16.00;99.90;;;;;;5073400;28;20288;-69
2022/06/07 02:25:41;;;;;;;10.57;6.97;;;16.00;99.90;;;;;;5073174;28;20200;-70
2022/06/07 02:28:11;;;;;;;10.73;6.70;;;16.10;99.90;;;;;;5073351;28;20189;-71
2022/06/07 02:30:39;;;;;;;12.10;7.57;;;16.10;99.90;;;;;;5072925;28;20726;-67
2022/06/07 02:33:06;;;;;;;9.27;6.53;;;16.20;99.90;;;;;;5053038;28;20201;-69
2022/06/07 02:35:33;;;;;;;11.10;6.60;;;16.30;99.90;;;;;;5054700;28;20296;-69
2022/06/07 02:38:00;;;;;;;10.10;7.27;;;16.40;99.90;;;;;;5073073;28;20311;-67
2022/06/07 02:40:27;;;;;;;12.17;6.67;;;16.50;99.90;;;;;;5072349;28;20235;-68
2022/06/07 02:42:54;;;;;;;16.60;7.87;;;16.60;99.90;;;;;;5054038;28;20212;-69
2022/06/07 02:45:22;;;;;;;15.53;6.57;;;16.70;99.90;;;;;;5052776;28;20576;-69
2022/06/07 02:47:49;;;;;;;11.57;7.17;;;16.80;99.90;;;;;;5052840;28;20296;-67
2022/06/07 02:50:17;;;;;;;10.90;6.87;;;16.90;99.90;;;;;;5052732;28;20231;-69
2022/06/07 02:52:43;;;;;;;9.77;7.17;;;17.00;99.90;;;;;;5068739;28;20263;-69
2022/06/07 02:55:10;;;;;;;10.07;6.97;;;17.10;99.90;;;;;;5070930;28;20569;-69
2022/06/07 02:57:37;;;;;;;11.93;6.73;;;17.10;99.90;;;;;;5072527;28;20723;-69
2022/06/07 03:00:06;;;;;;;11.90;6.93;;;17.20;99.90;;;;;;5070852;28;20271;-68
2022/06/07 03:02:34;;;;;;;13.60;7.67;;;17.30;99.90;;;;;;5072076;28;20324;-68
2022/06/07 03:05:01;;;;;;;15.33;7.17;;;17.40;99.90;;;;;;5072103;28;20675;-69
2022/06/07 03:07:28;;;;;;;11.27;6.87;;;17.50;99.90;;;;;;5072229;28;20284;-69
2022/06/07 03:09:54;;;;;;;13.10;7.00;;;17.60;99.90;;;;;;5056819;28;20197;-70
2022/06/07 03:12:21;;;;;;;14.53;7.33;;;17.60;99.90;;;;;;5052049;28;20300;-69
2022/06/07 03:14:48;;;;;;;13.47;7.30;;;17.70;99.90;;;;;;5052363;28;20318;-69
2022/06/07 03:17:15;;;;;;;11.67;7.33;;;17.80;99.90;;;;;;5062019;28;20298;-70
2022/06/07 03:19:43;;;;;;;12.33;7.63;;;17.90;99.90;;;;;;5072407;28;20205;-69
2022/06/07 03:22:12;;;;;;;14.80;8.00;;;17.90;99.90;;;;;;5071941;28;20295;-69
2022/06/07 03:24:39;;;;;;;13.67;7.87;;;18.00;99.90;;;;;;5072681;28;20204;-68
2022/06/07 03:27:06;;;;;;;13.40;8.20;;;18.10;99.90;;;;;;5063590;28;20284;-70
2022/06/07 03:29:33;;;;;;;12.53;8.60;;;18.10;99.90;;;;;;5051824;28;20299;-69
2022/06/07 03:32:00;;;;;;;12.43;8.53;;;18.20;99.90;;;;;;5051819;28;20227;-69
2022/06/07 03:34:27;;;;;;;13.93;8.67;;;18.20;99.90;;;;;;5052047;28;20663;-69
2022/06/07 03:36:56;;;;;;;15.83;8.90;;;18.30;99.90;;;;;;5056687;28;20295;-69
2022/06/07 03:39:23;;;;;;;16.13;8.23;;;18.30;99.90;;;;;;5071124;28;20300;-69
2022/06/07 03:41:50;;;;;;;13.27;8.90;;;18.40;99.90;;;;;;5071509;28;20430;-69
2022/06/07 03:44:16;;;;;;;20.20;9.30;;;18.50;99.90;;;;;;5071491;28;20205;-69
2022/06/07 03:46:44;;;;;;;13.23;8.30;;;18.50;99.90;;;;;;5071803;28;20275;-69
2022/06/07 03:49:12;;;;;;;10.87;7.73;;;18.70;99.90;;;;;;5052470;28;20211;-69
2022/06/07 03:51:39;;;;;;;11.73;7.50;;;18.70;99.90;;;;;;5051655;28;20244;-69
2022/06/07 03:54:07;;;;;;;11.53;7.80;;;18.80;99.90;;;;;;5051222;28;20303;-69
2022/06/07 03:56:35;;;;;;;10.40;7.47;;;18.90;99.90;;;;;;5054440;28;20242;-69
2022/06/07 03:59:02;;;;;;;13.63;7.27;;;19.00;99.90;;;;;;5071421;28;20217;-69
2022/06/07 04:01:30;;;;;;;10.13;6.37;;;19.10;99.90;;;;;;5071196;28;20205;-69
2022/06/07 04:04:01;;;;;;;8.27;6.40;;;19.20;99.90;;;;;;5071273;28;20249;-69
2022/06/07 04:06:31;;;;;;;10.13;6.30;;;19.30;99.90;;;;;;5056134;28;20241;-69
2022/06/07 04:08:58;;;;;;;11.07;7.80;;;19.30;99.90;;;;;;5051976;28;20291;-69
2022/06/07 04:11:28;;;;;;;11.03;7.50;;;19.40;99.90;;;;;;5051445;28;20234;-70
2022/06/07 04:13:57;;;;;;;9.40;6.83;;;19.50;99.90;;;;;;5051480;28;20205;-69
2022/06/07 04:16:25;;;;;;;8.60;5.80;;;19.60;99.90;;;;;;5065526;28;20258;-70
2022/06/07 04:18:53;;;;;;;5.83;4.87;;;19.70;99.90;;;;;;5071423;28;20207;-69
2022/06/07 04:21:21;;;;;;;6.53;4.70;;;19.80;99.90;;;;;;5071969;28;20681;-72
2022/06/07 04:23:49;;;;;;;8.03;5.20;;;19.90;99.90;;;;;;5072707;28;20205;-69
2022/06/07 04:26:18;;;;;;;7.70;5.03;;;20.00;99.90;;;;;;5057481;28;20206;-71
2022/06/07 04:28:46;;;;;;;6.17;4.10;;;20.00;99.90;;;;;;5051351;28;20294;-69
2022/06/07 04:31:14;;;;;;;8.40;5.50;;;20.10;99.90;;;;;;5050969;28;20317;-70
2022/06/07 04:33:42;;;;;;;7.53;5.30;;;20.20;99.90;;;;;;5051600;28;20291;-69
2022/06/07 04:36:12;;;;;;;11.40;6.30;;;20.20;99.90;;;;;;5058645;28;20203;-70
2022/06/07 04:38:39;;;;;;;8.93;5.67;;;20.30;99.90;;;;;;5070842;28;20195;-69
2022/06/07 04:41:09;;;;;;;9.37;6.00;;;20.40;99.90;;;;;;5069131;28;20284;-71
2022/06/07 04:43:35;;;;;;;13.60;8.10;;;20.40;99.90;;;;;;5071457;28;20739;-70
2022/06/07 04:46:08;;;;;;;10.43;6.10;;;20.50;99.90;;;;;;5071312;28;20231;-68
2022/06/07 04:48:35;;;;;;;8.77;5.87;;;20.60;99.90;;;;;;5071149;28;20205;-69
2022/06/07 04:51:03;;;;;;;7.20;5.20;;;20.60;99.90;;;;;;5056296;28;20221;-69
2022/06/07 04:53:31;;;;;;;9.03;4.30;;;20.70;99.90;;;;;;5051142;28;20291;-70
2022/06/07 04:55:58;;;;;;;14.63;4.17;;;20.80;99.90;;;;;;5051061;28;20205;-72
2022/06/07 04:58:25;;;;;;;9.83;3.47;;;20.90;99.90;;;;;;5050741;28;20304;-69
2022/06/07 05:00:52;;;;;;;4.27;2.77;;;21.00;99.90;;;;;;5062718;28;20200;-69
2022/06/07 05:03:21;;;;;;;9.13;6.07;;;21.10;99.90;;;;;;5071100;28;20744;-70
2022/06/07 05:05:48;;;;;;;6.57;3.77;;;21.10;99.90;;;;;;5071207;28;20296;-69
2022/06/07 05:08:17;;;;;;;6.07;3.40;;;21.20;99.90;;;;;;5070755;28;20605;-69
2022/06/07 05:10:44;;;;;;;3.80;2.90;;;21.30;99.90;;;;;;5067919;28;20228;-72
2022/06/07 05:13:11;;;;;;;8.33;3.73;;;21.40;99.90;;;;;;5070451;28;20205;-71
2022/06/07 05:15:38;;;;;;;5.57;3.10;;;21.40;99.90;;;;;;5070490;28;20299;-70
2022/06/07 05:18:05;;;;;;;5.00;2.80;;;21.50;99.90;;;;;;5068713;28;20236;-69
2022/06/07 05:20:33;;;;;;;11.93;3.33;;;21.60;99.90;;;;;;5050542;28;20216;-69
2022/06/07 05:23:00;;;;;;;5.67;3.33;;;21.60;99.90;;;;;;5050631;28;20676;-70
2022/06/07 05:25:27;;;;;;;5.07;2.80;;;21.70;99.90;;;;;;5050914;28;20585;-69
2022/06/07 05:27:54;;;;;;;4.03;2.83;;;21.80;99.90;;;;;;5050694;28;20665;-70
2022/06/07 05:30:21;;;;;;;6.60;3.10;;;21.80;99.90;;;;;;5053293;28;20208;-70
2022/06/07 05:32:48;;;;;;;8.10;3.17;;;21.90;99.90;;;;;;5054129;28;20601;-70
2022/06/07 05:35:15;;;;;;;8.37;2.90;;;22.00;99.90;;;;;;5053603;28;20724;-71
2022/06/07 05:37:44;;;;;;;3.37;2.63;;;22.10;99.90;;;;;;5054292;28;20350;-67
2022/06/07 05:40:12;;;;;;;4.53;2.33;;;22.10;99.90;;;;;;5053511;28;20665;-69
2022/06/07 05:42:39;;;;;;;2.83;2.27;;;22.20;99.90;;;;;;5054014;28;20281;-70
2022/06/07 05:45:06;;;;;;;6.10;2.63;;;22.30;99.90;;;;;;5053702;28;20296;-70
2022/06/07 05:47:33;;;;;;;3.87;2.57;;;22.30;99.90;;;;;;5053965;28;20201;-70
2022/06/07 05:50:01;;;;;;;6.40;2.80;;;22.40;99.90;;;;;;5053576;28;20236;-70
2022/06/07 05:52:28;;;;;;;3.93;2.67;;;22.50;99.90;;;;;;5053683;28;20229;-70
2022/06/07 05:54:57;;;;;;;4.80;2.60;;;22.50;99.90;;;;;;5054360;28;20732;-74
2022/06/07 05:57:24;;;;;;;3.70;2.00;;;22.60;99.90;;;;;;5053488;28;20261;-70
2022/06/07 05:59:51;;;;;;;4.73;1.90;;;22.60;99.90;;;;;;5053373;28;20227;-70
2022/06/07 06:02:18;;;;;;;2.87;1.90;;;22.80;99.90;;;;;;5053376;28;20292;-70
2022/06/07 06:04:44;;;;;;;5.73;1.90;;;22.80;99.90;;;;;;5053409;28;20288;-70
2022/06/07 06:07:11;;;;;;;2.97;2.30;;;22.90;99.80;;;;;;5053268;28;20224;-69
2022/06/07 06:12:24;;;;;;;3.27;1.80;;;23.00;99.50;;;;;;5053618;28;20240;-70
2022/06/07 06:14:51;;;;;;;4.20;1.97;;;23.20;99.20;;;;;;5053242;28;20257;-68
2022/06/07 06:17:18;;;;;;;2.53;2.00;;;23.20;98.90;;;;;;5053521;28;20683;-71
2022/06/07 06:19:45;;;;;;;4.80;2.00;;;23.30;98.40;;;;;;5053364;28;20706;-69
2022/06/07 06:22:13;;;;;;;2.43;1.93;;;23.30;97.90;;;;;;5052957;28;20246;-71
2022/06/07 06:24:40;;;;;;;2.80;1.80;;;23.40;97.80;;;;;;5053492;28;20214;-69
2022/06/07 06:27:07;;;;;;;2.10;1.60;;;23.50;97.90;;;;;;5052584;28;20200;-70
2022/06/07 06:29:36;;;;;;;2.60;1.87;;;23.60;97.80;;;;;;5053246;28;20300;-69
2022/06/07 06:32:03;;;;;;;2.87;1.70;;;23.60;97.30;;;;;;5053268;28;20238;-69
2022/06/07 06:34:30;;;;;;;1.60;1.50;;;23.70;96.90;;;;;;5053340;28;20570;-69
2022/06/07 06:36:57;;;;;;;1.70;1.60;;;23.80;96.50;;;;;;5052828;28;20214;-70
2022/06/07 06:39:25;;;;;;;2.10;1.60;;;23.80;96.20;;;;;;5052869;28;20302;-70
2022/06/07 06:41:52;;;;;;;4.00;1.80;;;23.90;96.30;;;;;;5053278;28;20661;-71
2022/06/07 06:44:19;;;;;;;3.23;1.90;;;23.90;95.90;;;;;;5052872;28;20226;-70
2022/06/07 06:46:49;;;;;;;9.10;2.67;;;24.00;95.30;;;;;;5063171;28;20206;-69
2022/06/07 06:49:18;;;;;;;13.43;2.13;;;24.00;95.50;;;;;;5072694;28;20253;-69
2022/06/07 06:51:46;;;;;;;4.20;1.90;;;24.10;95.40;;;;;;5060234;28;20220;-70
2022/06/07 06:54:14;;;;;;;1.73;1.57;;;24.20;95.10;;;;;;5069219;28;20204;-69
2022/06/07 06:56:41;;;;;;;1.60;1.50;;;24.30;95.20;;;;;;5073076;28;20211;-71
2022/06/07 06:59:09;;;;;;;2.20;1.80;;;24.30;94.80;;;;;;5072392;28;20268;-69
2022/06/07 07:01:39;;;;;;;2.83;1.70;;;24.40;94.30;;;;;;5068290;28;20193;-71
2022/06/07 07:04:10;;;;;;;4.00;1.60;;;24.50;94.10;;;;;;5062485;28;20233;-70
2022/06/07 07:06:38;;;;;;;2.17;1.60;;;24.50;93.60;;;;;;5052996;28;20526;-70
2022/06/07 07:09:06;;;;;;;1.90;1.60;;;24.50;93.30;;;;;;5055809;28;20204;-69
2022/06/07 07:11:37;;;;;;;1.73;1.60;;;24.60;92.70;;;;;;5052184;28;20693;-70
2022/06/07 07:14:05;;;;;;;2.80;1.70;;;24.60;92.90;;;;;;5053880;28;20621;-72
2022/06/07 07:16:38;;;;;;;4.40;2.10;;;24.70;93.30;;;;;;5072264;28;20679;-70
2022/06/07 07:19:07;;;;;;;2.87;1.63;;;24.80;93.30;;;;;;5072182;28;20211;-72
2022/06/07 07:21:36;;;;;;;2.57;1.90;;;24.90;92.70;;;;;;5072249;28;20205;-70
2022/06/07 07:24:05;;;;;;;4.20;1.90;;;24.90;91.50;;;;;;5064373;28;20651;-69
2022/06/07 07:26:33;;;;;;;2.87;1.70;;;24.90;91.80;;;;;;5052460;28;20262;-70
2022/06/07 07:29:00;;;;;;;5.53;1.87;;;24.90;90.90;;;;;;5052060;28;20261;-70
2022/06/07 07:31:31;;;;;;;3.13;2.40;;;24.80;90.30;;;;;;5052047;28;20649;-73
2022/06/07 07:33:59;;;;;;;2.27;1.70;;;24.70;90.60;;;;;;5061074;28;20200;-73
2022/06/07 07:36:28;;;;;;;2.17;1.80;;;24.80;91.00;;;;;;5072408;28;20206;-71
2022/06/07 07:38:56;;;;;;;2.70;1.70;;;25.00;91.20;;;;;;5071794;28;20634;-70
2022/06/07 07:41:26;;;;;;;5.23;1.87;;;25.10;91.20;;;;;;5072057;28;20258;-71
2022/06/07 07:43:55;;;;;;;3.90;2.00;;;25.30;91.30;;;;;;5071566;28;20204;-72
2022/06/07 07:46:24;;;;;;;4.07;1.80;;;25.40;91.00;;;;;;5071726;28;20204;-71
2022/06/07 07:48:51;;;;;;;10.40;2.10;;;25.50;90.30;;;;;;5059491;28;20210;-71
2022/06/07 07:51:20;;;;;;;5.45;2.20;;;25.50;90.90;;;;;;5058002;28;20231;-70
2022/06/07 07:53:49;;;;;;;26.77;3.53;;;25.50;90.00;;;;;;5072151;28;20291;-71
2022/06/07 07:56:16;;;;;;;12.65;2.63;;;25.50;90.30;;;;;;5060084;28;20295;-70
2022/06/07 07:58:43;;;;;;;4.15;2.10;;;25.60;90.70;;;;;;5052128;28;20231;-69
2022/06/07 08:01:12;;;;;;;5.25;1.90;;;25.80;90.90;;;;;;5051882;28;20207;-71
2022/06/07 08:03:39;;;;;;;8.57;2.00;;;25.90;90.00;;;;;;5053078;28;20400;-71
2022/06/07 08:06:08;;;;;;;5.38;1.98;;;25.90;89.00;;;;;;5061866;28;20297;-71
2022/06/07 08:08:35;;;;;;;3.63;1.70;;;26.00;88.60;;;;;;5051435;28;20201;-73
2022/06/07 08:11:04;;;;;;;2.05;1.60;;;26.00;87.00;;;;;;5051852;28;20753;-70
2022/06/07 08:13:31;;;;;;;2.78;1.75;;;25.80;87.30;;;;;;5052013;28;20224;-71
2022/06/07 08:15:59;;;;;;;32.83;3.13;;;25.90;87.90;;;;;;5052826;28;20199;-71
2022/06/07 08:18:27;;;;;;;3.70;2.00;;;26.00;87.50;;;;;;5060500;28;20197;-69
2022/06/07 08:20:59;;;;;;;5.18;1.67;;;26.00;87.00;;;;;;5069092;28;20204;-70
2022/06/07 08:23:28;;;;;;;3.13;1.80;;;26.00;87.50;;;;;;5072471;28;20550;-72
2022/06/07 08:25:55;;;;;;;2.10;1.65;;;26.00;87.50;;;;;;5072066;28;20239;-70
2022/06/07 08:28:23;;;;;;;2.03;1.80;;;26.00;86.90;;;;;;5071420;28;20301;-70
2022/06/07 08:30:50;;;;;;;2.53;1.88;;;25.90;85.70;;;;;;5055481;28;20214;-72
2022/06/07 08:38:52;;;;;;;2.00;1.50;;;25.70;85.60;;;;;;5054500;28;20573;-70
2022/06/07 08:41:23;;;;;;;3.63;1.60;;;25.70;85.80;;;;;;5051519;28;20628;-71
2022/06/07 08:43:51;;;;;;;7.93;2.00;;;25.70;85.60;;;;;;5051266;28;20293;-73
2022/06/07 08:46:25;;;;;;;2.42;1.83;;;25.60;83.50;;;;;;5056036;28;20652;-72
2022/06/07 08:48:52;;;;;;;2.83;1.80;;;25.60;84.40;;;;;;5069898;28;20227;-69
2022/06/07 08:51:24;;;;;;;1.92;1.70;;;25.50;84.90;;;;;;5071376;28;20299;-70
2022/06/07 08:53:53;;;;;;;9.50;2.38;;;25.50;85.00;;;;;;5071378;28;20268;-71
2022/06/07 08:56:25;;;;;;;4.05;1.90;;;25.60;83.90;;;;;;5070671;28;20639;-68
2022/06/07 08:58:55;;;;;;;3.87;1.60;;;25.50;83.90;;;;;;5070919;28;20203;-70
2022/06/07 09:01:31;;;;;;;3.38;1.63;;;25.50;83.80;;;;;;5071263;28;20259;-69
2022/06/07 09:04:12;;;;;;;1.80;1.70;;;25.50;84.10;;;;;;5073308;28;20264;-69
2022/06/07 09:06:41;;;;;;;3.47;2.00;;;25.60;85.00;;;;;;5074505;28;20199;-68
2022/06/07 09:09:10;;;;;;;2.15;1.65;;;25.70;83.50;;;;;;5074645;28;20298;-70
2022/06/07 09:14:30;;;;;;;2.47;2.10;;;25.80;83.70;;;;;;5074457;28;20384;-69
2022/06/07 09:16:58;;;;;;;7.10;2.03;;;25.90;82.50;;;;;;5074976;28;20698;-68
2022/06/07 09:19:27;;;;;;;2.67;1.60;;;25.90;81.10;;;;;;5074155;28;20258;-67
2022/06/07 09:21:58;;;;;;;2.17;1.60;;;25.90;81.80;;;;;;5074686;28;20289;-70
2022/06/07 09:24:30;;;;;;;2.88;2.10;;;26.00;81.90;;;;;;5074526;28;20567;-70
2022/06/07 09:27:15;;;;;;;2.35;1.83;;;26.00;83.30;;;;;;5074658;28;20286;-68
2022/06/07 09:29:50;;;;;;;2.60;2.03;;;26.00;82.50;;;;;;5074562;28;20192;-69
2022/06/07 09:32:20;;;;;;;2.90;1.70;;;26.00;81.50;;;;;;5074629;28;20302;-69
2022/06/07 09:34:56;;;;;;;2.03;1.83;;;25.80;81.70;;;;;;5074424;28;20260;-69
2022/06/07 09:37:31;;;;;;;3.60;1.70;;;25.70;82.20;;;;;;5074307;28;20184;-71
2022/06/07 09:40:11;;;;;;;2.45;1.70;;;25.70;82.90;;;;;;5074193;28;20287;-69
2022/06/07 09:42:38;;;;;;;3.20;1.80;;;25.60;83.30;;;;;;5074226;28;20234;-69
2022/06/07 09:45:21;;;;;;;2.45;1.80;;;25.60;83.70;;;;;;5073995;28;20214;-68
2022/06/07 09:47:48;;;;;;;3.88;2.00;;;25.70;84.40;;;;;;5074174;28;20515;-68
2022/06/07 09:50:20;;;;;;;5.43;1.80;;;25.80;84.20;;;;;;5074952;28;20688;-68
2022/06/07 09:52:50;;;;;;;6.22;1.90;;;26.00;83.80;;;;;;5074247;28;20301;-74
2022/06/07 09:55:22;;;;;;;3.40;2.15;;;26.10;83.40;;;;;;5060668;28;20222;-73
2022/06/07 09:57:57;;;;;;;1.92;1.70;;;26.20;84.00;;;;;;5055976;28;20222;-71
2022/06/07 10:00:37;;;;;;;2.25;1.80;;;26.30;82.80;;;;;;5065057;28;20230;-70
2022/06/07 10:03:26;;;;;;;1.70;1.60;;;26.30;81.90;;;;;;5074340;28;20300;-71
2022/06/07 10:06:11;;;;;;;2.95;1.98;;;26.40;82.00;;;;;;5070648;28;20196;-73
2022/06/07 10:09:03;;;;;;;1.98;1.77;;;26.40;81.20;;;;;;5055932;28;20293;-73
2022/06/07 10:11:36;;;;;;;5.23;2.00;;;26.30;81.20;;;;;;5042354;28;20298;-72
2022/06/07 10:14:14;;;;;;;2.95;2.10;;;26.10;81.30;;;;;;5054079;28;20301;-73
2022/06/07 10:16:52;;;;;;;1.73;1.63;;;26.10;80.80;;;;;;5055312;28;20253;-74
2022/06/07 10:19:32;;;;;;;3.03;1.95;;;26.10;80.80;;;;;;5052208;28;20287;-71
2022/06/07 10:22:28;;;;;;;2.53;1.98;;;26.10;82.00;;;;;;5053834;28;20214;-70
2022/06/07 10:25:10;;;;;;;2.53;1.67;;;26.20;81.20;;;;;;5053465;28;20560;-70
2022/06/07 10:27:46;;;;;;;3.42;2.03;;;26.30;80.80;;;;;;5058158;28;20278;-72
2022/06/07 10:30:26;;;;;;;2.63;2.13;;;26.40;81.80;;;;;;5074144;28;20605;-71
2022/06/07 10:33:20;;;;;;;3.15;1.95;;;26.40;81.00;;;;;;5069074;28;20214;-73
2022/06/07 10:35:55;;;;;;;2.63;1.60;;;26.50;83.10;;;;;;5073103;28;20262;-69
2022/06/07 10:38:36;;;;;;;2.67;2.25;;;26.60;83.30;;;;;;5073573;28;20283;-69
2022/06/07 10:41:10;;;;;;;3.28;1.83;;;26.70;82.30;;;;;;5068024;28;20200;-70
2022/06/07 10:43:53;;;;;;;2.90;2.03;;;26.80;80.70;;;;;;5052600;28;20191;-71
2022/06/07 10:46:21;;;;;;;2.42;1.80;;;26.80;80.30;;;;;;5053194;28;20206;-71
2022/06/07 10:49:10;;;;;;;1.90;1.75;;;26.80;80.40;;;;;;5056003;28;20587;-70
2022/06/07 10:54:31;;;;;;;3.38;1.80;;;27.10;80.70;;;;;;5054658;28;20288;-69
2022/06/07 10:57:12;;;;;;;3.90;2.22;;;27.20;80.20;;;;;;5053723;28;20725;-70
2022/06/07 10:59:41;;;;;;;3.20;2.00;;;27.40;80.80;;;;;;5061887;28;20195;-70
2022/06/07 11:02:19;;;;;;;2.13;1.70;;;27.50;78.90;;;;;;5072796;28;20752;-72
2022/06/07 11:10:29;;;;;;;2.70;1.85;;;27.50;76.50;;;;;;5052325;28;20561;-70
2022/06/07 11:13:03;;;;;;;2.00;1.77;;;27.30;75.60;;;;;;5051831;28;20321;-70
2022/06/07 11:15:38;;;;;;;3.90;2.20;;;27.20;76.40;;;;;;5052999;28;20252;-70
2022/06/07 11:18:10;;;;;;;3.67;2.00;;;27.20;76.10;;;;;;5052980;28;20206;-69
2022/06/07 11:20:49;;;;;;;2.47;2.00;;;27.20;76.80;;;;;;5052643;28;20201;-69
2022/06/07 11:23:20;;;;;;;10.38;2.13;;;27.30;76.80;;;;;;5052558;28;20197;-70
2022/06/07 11:26:02;;;;;;;11.75;2.28;;;27.30;78.10;;;;;;5053032;28;20628;-71
2022/06/07 11:28:33;;;;;;;2.28;1.77;;;27.50;78.50;;;;;;5052673;28;20376;-71
2022/06/07 11:31:04;;;;;;;3.92;2.85;;;27.50;78.70;;;;;;5052422;28;20236;-70
2022/06/07 11:33:38;;;;;;;2.47;2.15;;;27.50;78.80;;;;;;5052649;28;20261;-70
2022/06/07 11:36:23;;;;;;;3.35;1.80;;;27.50;78.40;;;;;;5052899;28;20190;-71
2022/06/07 11:39:06;;;;;;;2.20;1.83;;;27.60;78.30;;;;;;5050936;28;20214;-70
2022/06/07 11:41:42;;;;;;;2.38;1.90;;;27.60;77.90;;;;;;5051075;28;20303;-70
2022/06/07 11:44:57;;;;;;;3.65;2.00;;;27.50;76.30;;;;;;5052098;28;20186;-69
2022/06/07 11:47:33;;;;;;;2.38;1.67;;;27.30;76.80;;;;;;5041671;28;20422;-73
2022/06/07 11:50:10;;;;;;;6.95;2.35;;;27.10;77.30;;;;;;5051742;28;20568;-70
2022/06/07 11:52:55;;;;;;;18.77;2.90;;;27.10;78.20;;;;;;5051356;28;20190;-70
2022/06/07 11:55:26;;;;;;;2.92;1.98;;;27.20;78.50;;;;;;5051811;28;20277;-70
2022/06/07 11:58:02;;;;;;;5.38;1.95;;;27.10;77.50;;;;;;5051455;28;20189;-70
2022/06/07 12:00:49;;;;;;;2.72;1.80;;;27.00;77.70;;;;;;5052244;28;20189;-71
2022/06/07 12:03:35;;;;;;;4.10;2.15;;;27.00;79.20;;;;;;5051666;28;20248;-71
2022/06/07 12:06:21;;;;;;;2.33;1.88;;;27.00;79.10;;;;;;5052015;28;20315;-71
2022/06/07 12:08:59;;;;;;;5.95;2.00;;;26.90;77.80;;;;;;5052188;28;20201;-70
2022/06/07 12:11:28;;;;;;;4.88;2.05;;;26.80;78.00;;;;;;5070677;28;20625;-70
2022/06/07 12:14:12;;;;;;;17.10;2.92;;;26.80;78.40;;;;;;5069081;28;20231;-72
2022/06/07 12:16:42;;;;;;;36.65;3.65;;;26.70;78.30;;;;;;5067838;28;20185;-71
2022/06/07 12:19:19;;;;;;;3.63;2.05;;;26.60;79.90;;;;;;5051755;28;20246;-70
2022/06/07 12:21:53;;;;;;;6.25;2.33;;;26.60;77.70;;;;;;5051932;28;20307;-70
2022/06/07 12:24:23;;;;;;;5.13;2.00;;;26.60;79.50;;;;;;5062381;28;20645;-70
2022/06/07 12:26:50;;;;;;;6.05;2.00;;;26.70;80.10;;;;;;5070603;28;20203;-71
2022/06/07 12:29:23;;;;;;;117.78;7.85;;;26.80;80.30;;;;;;5071401;28;20329;-71
2022/06/07 12:31:53;;;;;;;10.95;3.03;;;26.90;78.70;;;;;;5072022;28;20204;-72
2022/06/07 12:34:22;;;;;;;20.08;3.65;;;26.90;78.90;;;;;;5072226;28;20310;-72
2022/06/07 12:36:55;;;;;;;17.95;2.72;;;26.90;80.00;;;;;;5059406;28;20282;-71
2022/06/07 12:39:23;;;;;;;26.38;3.50;;;26.90;79.30;;;;;;5054421;28;20247;-70
2022/06/07 12:41:53;;;;;;;4.85;2.25;;;27.00;78.60;;;;;;5055702;28;20204;-70
2022/06/07 12:44:27;;;;;;;3.50;1.90;;;27.10;79.00;;;;;;5055331;28;20211;-71
2022/06/07 12:46:54;;;;;;;3.78;1.90;;;27.10;78.30;;;;;;5055743;28;20198;-72
2022/06/07 12:49:25;;;;;;;6.72;3.55;;;27.10;78.30;;;;;;5055581;28;20207;-71
2022/06/07 12:51:59;;;;;;;2.88;2.00;;;27.10;78.50;;;;;;5055761;28;20287;-69
2022/06/07 12:54:29;;;;;;;2.75;1.90;;;27.10;78.70;;;;;;5059113;28;20884;-71
2022/06/07 12:56:58;;;;;;;2.05;1.85;;;27.20;78.90;;;;;;5054872;28;20548;-71
2022/06/07 12:59:33;;;;;;;4.63;3.40;;;27.30;79.20;;;;;;5057295;28;20295;-71
2022/06/07 13:02:00;;;;;;;3.22;2.03;;;27.40;78.80;;;;;;5068540;28;20276;-70
2022/06/07 13:04:32;;;;;;;3.83;1.85;;;27.30;78.20;;;;;;5060381;28;20611;-70
2022/06/07 13:07:18;;;;;;;3.95;1.80;;;27.40;78.50;;;;;;5054978;28;20204;-70
2022/06/07 13:09:48;;;;;;;3.55;1.70;;;27.40;78.30;;;;;;5055014;28;20343;-72
2022/06/07 13:12:21;;;;;;;3.42;1.80;;;27.40;79.50;;;;;;5058769;28;20642;-69
2022/06/07 13:14:48;;;;;;;3.70;2.10;;;27.50;78.20;;;;;;5062148;28;20220;-71
2022/06/07 13:17:27;;;;;;;2.95;1.90;;;27.50;77.80;;;;;;5054517;28;20237;-70
2022/06/07 13:19:55;;;;;;;1.98;1.80;;;27.60;77.90;;;;;;5055217;28;20631;-74
2022/06/07 13:22:24;;;;;;;3.30;1.77;;;27.50;78.20;;;;;;5067965;28;20208;-73
2022/06/07 13:24:56;;;;;;;7.15;1.80;;;27.50;77.20;;;;;;5069149;28;20676;-72